sensor_id;sensor_type;location;lat;lon;timestamp;P1;durP1;ratioP1;P2;durP2;ratioP2
45344;SDS011;31078;48.304;11.896;2022-09-03T00:01:36;3.30;;;1.95;;
45344;SDS011;31078;48.304;11.896;2022-09-03T00:04:09;3.25;;;1.65;;
45344;SDS011;31078;48.304;11.896;2022-09-03T00:06:44;3.83;;;2.03;;
45344;SDS011;31078;48.304;11.896;2022-09-03T00:09:15;3.25;;;2.20;;
45344;SDS011;31078;48.304;11.896;2022-09-03T00:11:51;3.22;;;1.90;;
45344;SDS011;31078;48.304;11.896;2022-09-03T00:14:31;2.78;;;1.75;;
45344;SDS011;31078;48.304;11.896;2022-09-03T00:17:04;3.40;;;2.00;;
45344;SDS011;31078;48.304;11.896;2022-09-03T00:19:36;2.40;;;1.80;;
45344;SDS011;31078;48.304;11.896;2022-09-03T00:22:08;4.65;;;1.83;;
45344;SDS011;31078;48.304;11.896;2022-09-03T00:24:39;4.43;;;1.90;;
45344;SDS011;31078;48.304;11.896;2022-09-03T00:27:12;4.05;;;2.10;;
45344;SDS011;31078;48.304;11.896;2022-09-03T00:29:43;2.88;;;1.63;;
45344;SDS011;31078;48.304;11.896;2022-09-03T00:32:15;3.17;;;2.00;;
45344;SDS011;31078;48.304;11.896;2022-09-03T00:34:47;6.32;;;2.03;;
45344;SDS011;31078;48.304;11.896;2022-09-03T00:37:18;2.17;;;1.60;;
45344;SDS011;31078;48.304;11.896;2022-09-03T00:39:44;5.53;;;2.17;;
45344;SDS011;31078;48.304;11.896;2022-09-03T00:42:20;3.97;;;1.90;;
45344;SDS011;31078;48.304;11.896;2022-09-03T00:45:00;3.65;;;2.20;;
45344;SDS011;31078;48.304;11.896;2022-09-03T00:47:38;3.10;;;1.90;;
45344;SDS011;31078;48.304;11.896;2022-09-03T00:50:16;3.33;;;1.67;;
45344;SDS011;31078;48.304;11.896;2022-09-03T00:52:54;3.45;;;1.95;;
45344;SDS011;31078;48.304;11.896;2022-09-03T00:55:31;3.15;;;1.40;;
45344;SDS011;31078;48.304;11.896;2022-09-03T00:58:14;2.38;;;1.52;;
45344;SDS011;31078;48.304;11.896;2022-09-03T01:00:49;3.15;;;1.83;;
45344;SDS011;31078;48.304;11.896;2022-09-03T01:03:18;4.07;;;1.52;;
45344;SDS011;31078;48.304;11.896;2022-09-03T01:08:29;3.60;;;1.90;;
45344;SDS011;31078;48.304;11.896;2022-09-03T01:11:12;2.22;;;1.58;;
45344;SDS011;31078;48.304;11.896;2022-09-03T01:13:47;3.25;;;1.85;;
45344;SDS011;31078;48.304;11.896;2022-09-03T01:16:21;3.53;;;2.00;;
45344;SDS011;31078;48.304;11.896;2022-09-03T01:21:28;2.97;;;1.90;;
45344;SDS011;31078;48.304;11.896;2022-09-03T01:24:21;3.90;;;1.63;;
45344;SDS011;31078;48.304;11.896;2022-09-03T01:27:02;3.75;;;1.75;;
45344;SDS011;31078;48.304;11.896;2022-09-03T01:29:43;3.90;;;1.75;;
45344;SDS011;31078;48.304;11.896;2022-09-03T01:32:21;5.03;;;1.77;;
45344;SDS011;31078;48.304;11.896;2022-09-03T01:34:53;2.95;;;1.40;;
45344;SDS011;31078;48.304;11.896;2022-09-03T01:37:30;5.30;;;1.75;;
45344;SDS011;31078;48.304;11.896;2022-09-03T01:40:06;2.53;;;1.85;;
45344;SDS011;31078;48.304;11.896;2022-09-03T01:42:45;2.60;;;1.55;;
45344;SDS011;31078;48.304;11.896;2022-09-03T01:45:29;3.28;;;1.90;;
45344;SDS011;31078;48.304;11.896;2022-09-03T01:48:09;2.58;;;1.90;;
45344;SDS011;31078;48.304;11.896;2022-09-03T01:50:47;3.75;;;1.67;;
45344;SDS011;31078;48.304;11.896;2022-09-03T01:53:27;5.25;;;1.88;;
45344;SDS011;31078;48.304;11.896;2022-09-03T01:56:13;2.95;;;2.10;;
45344;SDS011;31078;48.304;11.896;2022-09-03T01:58:51;3.78;;;1.83;;
45344;SDS011;31078;48.304;11.896;2022-09-03T02:01:28;2.78;;;1.83;;
45344;SDS011;31078;48.304;11.896;2022-09-03T02:03:58;4.38;;;2.40;;
45344;SDS011;31078;48.304;11.896;2022-09-03T02:06:25;5.50;;;2.20;;
45344;SDS011;31078;48.304;11.896;2022-09-03T02:08:53;5.45;;;2.00;;
45344;SDS011;31078;48.304;11.896;2022-09-03T02:11:19;7.22;;;2.20;;
45344;SDS011;31078;48.304;11.896;2022-09-03T02:13:46;3.17;;;1.70;;
45344;SDS011;31078;48.304;11.896;2022-09-03T02:16:16;5.15;;;1.70;;
45344;SDS011;31078;48.304;11.896;2022-09-03T02:18:49;3.30;;;1.77;;
45344;SDS011;31078;48.304;11.896;2022-09-03T02:21:18;2.85;;;1.63;;
45344;SDS011;31078;48.304;11.896;2022-09-03T02:23:47;3.10;;;2.20;;
45344;SDS011;31078;48.304;11.896;2022-09-03T02:26:15;3.45;;;1.85;;
45344;SDS011;31078;48.304;11.896;2022-09-03T02:28:45;2.92;;;2.00;;
45344;SDS011;31078;48.304;11.896;2022-09-03T02:31:11;4.03;;;2.10;;
45344;SDS011;31078;48.304;11.896;2022-09-03T02:33:39;3.00;;;2.00;;
45344;SDS011;31078;48.304;11.896;2022-09-03T02:36:09;3.08;;;2.08;;
45344;SDS011;31078;48.304;11.896;2022-09-03T02:38:39;2.63;;;2.00;;
45344;SDS011;31078;48.304;11.896;2022-09-03T02:41:07;3.25;;;2.10;;
45344;SDS011;31078;48.304;11.896;2022-09-03T02:43:40;4.97;;;2.20;;
45344;SDS011;31078;48.304;11.896;2022-09-03T02:46:11;5.60;;;2.35;;
45344;SDS011;31078;48.304;11.896;2022-09-03T02:48:42;11.38;;;2.53;;
45344;SDS011;31078;48.304;11.896;2022-09-03T02:51:10;4.43;;;2.15;;
45344;SDS011;31078;48.304;11.896;2022-09-03T02:53:37;3.65;;;2.17;;
45344;SDS011;31078;48.304;11.896;2022-09-03T02:56:04;3.63;;;2.15;;
45344;SDS011;31078;48.304;11.896;2022-09-03T02:58:31;3.20;;;2.15;;
45344;SDS011;31078;48.304;11.896;2022-09-03T03:00:57;4.80;;;2.10;;
45344;SDS011;31078;48.304;11.896;2022-09-03T03:03:24;4.47;;;2.00;;
45344;SDS011;31078;48.304;11.896;2022-09-03T03:05:51;3.40;;;2.10;;
45344;SDS011;31078;48.304;11.896;2022-09-03T03:08:22;4.13;;;2.20;;
45344;SDS011;31078;48.304;11.896;2022-09-03T03:10:52;4.15;;;2.20;;
45344;SDS011;31078;48.304;11.896;2022-09-03T03:13:20;3.03;;;1.95;;
45344;SDS011;31078;48.304;11.896;2022-09-03T03:15:47;5.30;;;2.08;;
45344;SDS011;31078;48.304;11.896;2022-09-03T03:18:13;3.25;;;2.40;;
45344;SDS011;31078;48.304;11.896;2022-09-03T03:20:41;3.03;;;2.20;;
45344;SDS011;31078;48.304;11.896;2022-09-03T03:23:08;4.63;;;2.22;;
45344;SDS011;31078;48.304;11.896;2022-09-03T03:25:37;4.32;;;2.72;;
45344;SDS011;31078;48.304;11.896;2022-09-03T03:28:04;4.78;;;2.25;;
45344;SDS011;31078;48.304;11.896;2022-09-03T03:30:31;2.90;;;2.03;;
45344;SDS011;31078;48.304;11.896;2022-09-03T03:32:58;5.18;;;2.20;;
45344;SDS011;31078;48.304;11.896;2022-09-03T03:35:25;5.60;;;2.42;;
45344;SDS011;31078;48.304;11.896;2022-09-03T03:37:52;2.90;;;2.00;;
45344;SDS011;31078;48.304;11.896;2022-09-03T03:40:18;3.55;;;2.33;;
45344;SDS011;31078;48.304;11.896;2022-09-03T03:42:46;3.22;;;2.22;;
45344;SDS011;31078;48.304;11.896;2022-09-03T03:45:14;3.92;;;2.20;;
45344;SDS011;31078;48.304;11.896;2022-09-03T03:47:40;3.95;;;2.17;;
45344;SDS011;31078;48.304;11.896;2022-09-03T03:50:07;3.92;;;2.33;;
45344;SDS011;31078;48.304;11.896;2022-09-03T03:52:34;5.68;;;2.55;;
45344;SDS011;31078;48.304;11.896;2022-09-03T03:55:00;4.18;;;2.33;;
45344;SDS011;31078;48.304;11.896;2022-09-03T03:57:28;3.42;;;2.20;;
45344;SDS011;31078;48.304;11.896;2022-09-03T03:59:57;4.28;;;2.53;;
45344;SDS011;31078;48.304;11.896;2022-09-03T04:02:23;3.70;;;2.60;;
45344;SDS011;31078;48.304;11.896;2022-09-03T04:04:50;4.15;;;2.50;;
45344;SDS011;31078;48.304;11.896;2022-09-03T04:07:16;3.53;;;2.20;;
45344;SDS011;31078;48.304;11.896;2022-09-03T04:09:43;3.05;;;2.40;;
45344;SDS011;31078;48.304;11.896;2022-09-03T04:12:09;2.75;;;2.40;;
45344;SDS011;31078;48.304;11.896;2022-09-03T04:14:35;3.13;;;2.33;;
45344;SDS011;31078;48.304;11.896;2022-09-03T04:17:03;3.03;;;2.30;;
45344;SDS011;31078;48.304;11.896;2022-09-03T04:19:30;3.58;;;2.50;;
45344;SDS011;31078;48.304;11.896;2022-09-03T04:21:56;3.45;;;2.30;;
45344;SDS011;31078;48.304;11.896;2022-09-03T04:24:23;3.70;;;2.53;;
45344;SDS011;31078;48.304;11.896;2022-09-03T04:26:49;4.70;;;2.28;;
45344;SDS011;31078;48.304;11.896;2022-09-03T04:29:18;3.92;;;2.53;;
45344;SDS011;31078;48.304;11.896;2022-09-03T04:31:45;2.90;;;2.40;;
45344;SDS011;31078;48.304;11.896;2022-09-03T04:34:27;5.97;;;2.72;;
45344;SDS011;31078;48.304;11.896;2022-09-03T04:36:53;4.50;;;2.72;;
45344;SDS011;31078;48.304;11.896;2022-09-03T04:39:22;4.40;;;2.70;;
45344;SDS011;31078;48.304;11.896;2022-09-03T04:41:48;3.88;;;2.75;;
45344;SDS011;31078;48.304;11.896;2022-09-03T04:44:15;3.10;;;2.40;;
45344;SDS011;31078;48.304;11.896;2022-09-03T04:46:41;6.57;;;3.03;;
45344;SDS011;31078;48.304;11.896;2022-09-03T04:49:11;3.38;;;2.65;;
45344;SDS011;31078;48.304;11.896;2022-09-03T04:51:40;5.15;;;2.83;;
45344;SDS011;31078;48.304;11.896;2022-09-03T04:54:07;4.03;;;2.72;;
45344;SDS011;31078;48.304;11.896;2022-09-03T04:56:34;3.53;;;2.60;;
45344;SDS011;31078;48.304;11.896;2022-09-03T04:59:02;4.60;;;3.00;;
45344;SDS011;31078;48.304;11.896;2022-09-03T05:01:31;4.05;;;2.50;;
45344;SDS011;31078;48.304;11.896;2022-09-03T05:03:59;3.53;;;2.70;;
45344;SDS011;31078;48.304;11.896;2022-09-03T05:06:26;3.83;;;2.60;;
45344;SDS011;31078;48.304;11.896;2022-09-03T05:08:55;3.88;;;2.80;;
45344;SDS011;31078;48.304;11.896;2022-09-03T05:11:23;5.10;;;2.70;;
45344;SDS011;31078;48.304;11.896;2022-09-03T05:13:51;5.05;;;2.80;;
45344;SDS011;31078;48.304;11.896;2022-09-03T05:16:19;4.85;;;2.80;;
45344;SDS011;31078;48.304;11.896;2022-09-03T05:18:46;3.83;;;2.83;;
45344;SDS011;31078;48.304;11.896;2022-09-03T05:21:13;3.80;;;2.60;;
45344;SDS011;31078;48.304;11.896;2022-09-03T05:23:41;3.08;;;2.40;;
45344;SDS011;31078;48.304;11.896;2022-09-03T05:26:10;4.97;;;2.83;;
45344;SDS011;31078;48.304;11.896;2022-09-03T05:28:38;4.07;;;2.90;;
45344;SDS011;31078;48.304;11.896;2022-09-03T05:31:07;5.75;;;2.60;;
45344;SDS011;31078;48.304;11.896;2022-09-03T05:33:35;5.40;;;2.92;;
45344;SDS011;31078;48.304;11.896;2022-09-03T05:36:03;4.38;;;2.80;;
45344;SDS011;31078;48.304;11.896;2022-09-03T05:38:31;5.20;;;2.45;;
45344;SDS011;31078;48.304;11.896;2022-09-03T05:40:58;8.43;;;2.70;;
45344;SDS011;31078;48.304;11.896;2022-09-03T05:43:27;3.83;;;2.75;;
45344;SDS011;31078;48.304;11.896;2022-09-03T05:45:56;7.00;;;3.00;;
45344;SDS011;31078;48.304;11.896;2022-09-03T05:48:23;3.75;;;2.88;;
45344;SDS011;31078;48.304;11.896;2022-09-03T05:50:49;3.97;;;2.50;;
45344;SDS011;31078;48.304;11.896;2022-09-03T05:53:25;4.63;;;2.58;;
45344;SDS011;31078;48.304;11.896;2022-09-03T05:55:53;3.10;;;2.50;;
45344;SDS011;31078;48.304;11.896;2022-09-03T05:58:20;4.97;;;2.75;;
45344;SDS011;31078;48.304;11.896;2022-09-03T06:00:48;4.95;;;2.42;;
45344;SDS011;31078;48.304;11.896;2022-09-03T06:03:14;3.25;;;2.55;;
45344;SDS011;31078;48.304;11.896;2022-09-03T06:05:48;3.63;;;2.63;;
45344;SDS011;31078;48.304;11.896;2022-09-03T06:08:15;3.50;;;2.33;;
45344;SDS011;31078;48.304;11.896;2022-09-03T06:10:41;3.72;;;2.60;;
45344;SDS011;31078;48.304;11.896;2022-09-03T06:13:08;6.18;;;2.78;;
45344;SDS011;31078;48.304;11.896;2022-09-03T06:15:35;4.97;;;2.65;;
45344;SDS011;31078;48.304;11.896;2022-09-03T06:18:03;3.13;;;2.50;;
45344;SDS011;31078;48.304;11.896;2022-09-03T06:20:30;5.70;;;2.42;;
45344;SDS011;31078;48.304;11.896;2022-09-03T06:22:57;5.50;;;3.05;;
45344;SDS011;31078;48.304;11.896;2022-09-03T06:25:23;3.78;;;2.90;;
45344;SDS011;31078;48.304;11.896;2022-09-03T06:27:51;6.90;;;2.65;;
45344;SDS011;31078;48.304;11.896;2022-09-03T06:30:18;3.88;;;2.90;;
45344;SDS011;31078;48.304;11.896;2022-09-03T06:32:46;3.10;;;2.60;;
45344;SDS011;31078;48.304;11.896;2022-09-03T06:35:15;5.78;;;3.47;;
45344;SDS011;31078;48.304;11.896;2022-09-03T06:37:42;8.38;;;4.57;;
45344;SDS011;31078;48.304;11.896;2022-09-03T06:40:09;6.75;;;4.53;;
45344;SDS011;31078;48.304;11.896;2022-09-03T06:42:37;6.38;;;4.65;;
45344;SDS011;31078;48.304;11.896;2022-09-03T06:45:03;4.63;;;3.10;;
45344;SDS011;31078;48.304;11.896;2022-09-03T06:47:31;4.88;;;2.90;;
45344;SDS011;31078;48.304;11.896;2022-09-03T06:49:58;3.60;;;2.90;;
45344;SDS011;31078;48.304;11.896;2022-09-03T06:52:27;4.30;;;2.78;;
45344;SDS011;31078;48.304;11.896;2022-09-03T06:54:54;3.97;;;2.70;;
45344;SDS011;31078;48.304;11.896;2022-09-03T06:57:20;4.78;;;3.33;;
45344;SDS011;31078;48.304;11.896;2022-09-03T06:59:47;3.72;;;2.95;;
45344;SDS011;31078;48.304;11.896;2022-09-03T07:02:13;4.68;;;2.97;;
45344;SDS011;31078;48.304;11.896;2022-09-03T07:04:40;3.95;;;3.03;;
45344;SDS011;31078;48.304;11.896;2022-09-03T07:07:06;3.95;;;3.05;;
45344;SDS011;31078;48.304;11.896;2022-09-03T07:09:38;3.92;;;2.95;;
45344;SDS011;31078;48.304;11.896;2022-09-03T07:12:05;4.28;;;2.95;;
45344;SDS011;31078;48.304;11.896;2022-09-03T07:14:32;4.47;;;2.80;;
45344;SDS011;31078;48.304;11.896;2022-09-03T07:16:58;4.32;;;3.40;;
45344;SDS011;31078;48.304;11.896;2022-09-03T07:19:24;4.50;;;3.20;;
45344;SDS011;31078;48.304;11.896;2022-09-03T07:21:51;4.72;;;2.90;;
45344;SDS011;31078;48.304;11.896;2022-09-03T07:24:18;4.35;;;2.58;;
45344;SDS011;31078;48.304;11.896;2022-09-03T07:26:47;8.20;;;3.33;;
45344;SDS011;31078;48.304;11.896;2022-09-03T07:29:13;6.18;;;3.03;;
45344;SDS011;31078;48.304;11.896;2022-09-03T07:31:43;3.88;;;3.10;;
45344;SDS011;31078;48.304;11.896;2022-09-03T07:34:11;3.83;;;3.03;;
45344;SDS011;31078;48.304;11.896;2022-09-03T07:36:40;5.90;;;3.17;;
45344;SDS011;31078;48.304;11.896;2022-09-03T07:39:11;4.70;;;3.40;;
45344;SDS011;31078;48.304;11.896;2022-09-03T07:41:38;5.65;;;3.47;;
45344;SDS011;31078;48.304;11.896;2022-09-03T07:44:11;4.07;;;3.10;;
45344;SDS011;31078;48.304;11.896;2022-09-03T07:46:39;6.50;;;3.42;;
45344;SDS011;31078;48.304;11.896;2022-09-03T07:49:06;5.35;;;3.00;;
45344;SDS011;31078;48.304;11.896;2022-09-03T07:51:33;5.07;;;2.90;;
45344;SDS011;31078;48.304;11.896;2022-09-03T07:54:01;7.18;;;3.42;;
45344;SDS011;31078;48.304;11.896;2022-09-03T07:56:31;6.03;;;3.10;;
45344;SDS011;31078;48.304;11.896;2022-09-03T07:58:59;5.43;;;3.85;;
45344;SDS011;31078;48.304;11.896;2022-09-03T08:01:27;4.40;;;3.03;;
45344;SDS011;31078;48.304;11.896;2022-09-03T08:03:55;3.97;;;3.15;;
45344;SDS011;31078;48.304;11.896;2022-09-03T08:06:22;4.97;;;3.58;;
45344;SDS011;31078;48.304;11.896;2022-09-03T08:08:53;3.30;;;2.92;;
45344;SDS011;31078;48.304;11.896;2022-09-03T08:11:23;5.88;;;3.80;;
45344;SDS011;31078;48.304;11.896;2022-09-03T08:13:52;7.07;;;3.63;;
45344;SDS011;31078;48.304;11.896;2022-09-03T08:16:26;5.38;;;3.10;;
45344;SDS011;31078;48.304;11.896;2022-09-03T08:18:54;5.90;;;3.20;;
45344;SDS011;31078;48.304;11.896;2022-09-03T08:21:22;4.38;;;3.15;;
45344;SDS011;31078;48.304;11.896;2022-09-03T08:23:50;7.45;;;4.18;;
45344;SDS011;31078;48.304;11.896;2022-09-03T08:26:19;6.75;;;3.75;;
45344;SDS011;31078;48.304;11.896;2022-09-03T08:28:46;4.43;;;3.75;;
45344;SDS011;31078;48.304;11.896;2022-09-03T08:31:14;7.30;;;3.88;;
45344;SDS011;31078;48.304;11.896;2022-09-03T08:33:43;5.07;;;3.50;;
45344;SDS011;31078;48.304;11.896;2022-09-03T08:36:11;5.43;;;3.70;;
45344;SDS011;31078;48.304;11.896;2022-09-03T08:38:39;7.50;;;4.18;;
45344;SDS011;31078;48.304;11.896;2022-09-03T08:41:09;5.88;;;4.07;;
45344;SDS011;31078;48.304;11.896;2022-09-03T08:46:42;4.28;;;3.65;;
45344;SDS011;31078;48.304;11.896;2022-09-03T08:49:20;5.05;;;4.07;;
45344;SDS011;31078;48.304;11.896;2022-09-03T08:51:49;7.10;;;3.88;;
45344;SDS011;31078;48.304;11.896;2022-09-03T08:54:20;5.78;;;4.10;;
45344;SDS011;31078;48.304;11.896;2022-09-03T08:56:49;4.40;;;3.78;;
45344;SDS011;31078;48.304;11.896;2022-09-03T08:59:16;4.97;;;4.05;;
45344;SDS011;31078;48.304;11.896;2022-09-03T09:01:47;7.80;;;4.10;;
45344;SDS011;31078;48.304;11.896;2022-09-03T09:04:28;6.45;;;4.18;;
45344;SDS011;31078;48.304;11.896;2022-09-03T09:07:04;7.82;;;4.10;;
45344;SDS011;31078;48.304;11.896;2022-09-03T09:09:38;6.43;;;4.60;;
45344;SDS011;31078;48.304;11.896;2022-09-03T09:12:14;6.95;;;4.55;;
45344;SDS011;31078;48.304;11.896;2022-09-03T09:14:51;7.85;;;4.45;;
45344;SDS011;31078;48.304;11.896;2022-09-03T09:20:34;8.60;;;4.75;;
45344;SDS011;31078;48.304;11.896;2022-09-03T09:23:06;7.13;;;4.38;;
45344;SDS011;31078;48.304;11.896;2022-09-03T09:25:35;7.18;;;3.85;;
45344;SDS011;31078;48.304;11.896;2022-09-03T09:28:16;7.40;;;4.65;;
45344;SDS011;31078;48.304;11.896;2022-09-03T09:30:44;5.75;;;4.82;;
45344;SDS011;31078;48.304;11.896;2022-09-03T09:33:12;5.72;;;4.40;;
45344;SDS011;31078;48.304;11.896;2022-09-03T09:35:40;7.38;;;4.90;;
45344;SDS011;31078;48.304;11.896;2022-09-03T09:38:08;7.38;;;4.50;;
45344;SDS011;31078;48.304;11.896;2022-09-03T09:40:36;5.82;;;4.63;;
45344;SDS011;31078;48.304;11.896;2022-09-03T09:43:06;6.63;;;4.57;;
45344;SDS011;31078;48.304;11.896;2022-09-03T09:45:36;5.20;;;4.50;;
45344;SDS011;31078;48.304;11.896;2022-09-03T09:48:07;11.48;;;4.93;;
45344;SDS011;31078;48.304;11.896;2022-09-03T09:50:35;6.65;;;4.60;;
45344;SDS011;31078;48.304;11.896;2022-09-03T09:53:05;4.47;;;4.00;;
45344;SDS011;31078;48.304;11.896;2022-09-03T09:55:47;5.15;;;4.35;;
45344;SDS011;31078;48.304;11.896;2022-09-03T09:58:15;6.20;;;4.47;;
45344;SDS011;31078;48.304;11.896;2022-09-03T10:00:53;5.93;;;4.40;;
45344;SDS011;31078;48.304;11.896;2022-09-03T10:03:20;4.30;;;3.67;;
45344;SDS011;31078;48.304;11.896;2022-09-03T10:05:54;5.20;;;3.92;;
45344;SDS011;31078;48.304;11.896;2022-09-03T10:08:27;4.88;;;3.92;;
45344;SDS011;31078;48.304;11.896;2022-09-03T10:10:54;7.32;;;3.95;;
45344;SDS011;31078;48.304;11.896;2022-09-03T10:13:21;7.80;;;3.88;;
45344;SDS011;31078;48.304;11.896;2022-09-03T10:15:54;4.88;;;3.58;;
45344;SDS011;31078;48.304;11.896;2022-09-03T10:18:30;7.38;;;3.72;;
45344;SDS011;31078;48.304;11.896;2022-09-03T10:21:05;4.68;;;3.80;;
45344;SDS011;31078;48.304;11.896;2022-09-03T10:23:45;3.47;;;3.00;;
45344;SDS011;31078;48.304;11.896;2022-09-03T10:26:18;8.68;;;3.65;;
45344;SDS011;31078;48.304;11.896;2022-09-03T10:28:55;5.65;;;3.60;;
45344;SDS011;31078;48.304;11.896;2022-09-03T10:31:35;4.30;;;3.70;;
45344;SDS011;31078;48.304;11.896;2022-09-03T10:34:12;6.32;;;3.08;;
45344;SDS011;31078;48.304;11.896;2022-09-03T10:36:45;5.88;;;3.95;;
45344;SDS011;31078;48.304;11.896;2022-09-03T10:39:20;6.30;;;3.97;;
45344;SDS011;31078;48.304;11.896;2022-09-03T10:41:54;7.47;;;3.88;;
45344;SDS011;31078;48.304;11.896;2022-09-03T10:44:36;4.07;;;3.40;;
45344;SDS011;31078;48.304;11.896;2022-09-03T10:47:26;7.30;;;3.22;;
45344;SDS011;31078;48.304;11.896;2022-09-03T10:50:06;3.35;;;2.83;;
45344;SDS011;31078;48.304;11.896;2022-09-03T10:52:42;5.30;;;3.40;;
45344;SDS011;31078;48.304;11.896;2022-09-03T10:55:34;4.97;;;3.25;;
45344;SDS011;31078;48.304;11.896;2022-09-03T10:58:10;5.88;;;3.60;;
45344;SDS011;31078;48.304;11.896;2022-09-03T11:00:51;4.65;;;3.90;;
45344;SDS011;31078;48.304;11.896;2022-09-03T11:03:26;6.90;;;3.53;;
45344;SDS011;31078;48.304;11.896;2022-09-03T11:06:07;5.95;;;3.72;;
45344;SDS011;31078;48.304;11.896;2022-09-03T11:08:40;4.90;;;3.72;;
45344;SDS011;31078;48.304;11.896;2022-09-03T11:11:12;8.68;;;4.70;;
45344;SDS011;31078;48.304;11.896;2022-09-03T11:13:45;3.83;;;3.20;;
45344;SDS011;31078;48.304;11.896;2022-09-03T11:16:19;4.38;;;3.38;;
45344;SDS011;31078;48.304;11.896;2022-09-03T11:18:51;3.78;;;2.83;;
45344;SDS011;31078;48.304;11.896;2022-09-03T11:21:22;3.63;;;3.08;;
45344;SDS011;31078;48.304;11.896;2022-09-03T11:23:52;4.80;;;3.03;;
45344;SDS011;31078;48.304;11.896;2022-09-03T11:26:31;4.65;;;2.75;;
45344;SDS011;31078;48.304;11.896;2022-09-03T11:29:00;3.47;;;2.40;;
45344;SDS011;31078;48.304;11.896;2022-09-03T11:31:36;4.25;;;2.60;;
45344;SDS011;31078;48.304;11.896;2022-09-03T11:34:12;4.35;;;2.83;;
45344;SDS011;31078;48.304;11.896;2022-09-03T11:36:41;5.90;;;3.35;;
45344;SDS011;31078;48.304;11.896;2022-09-03T11:39:17;4.75;;;3.80;;
45344;SDS011;31078;48.304;11.896;2022-09-03T11:41:56;3.63;;;3.22;;
45344;SDS011;31078;48.304;11.896;2022-09-03T11:44:33;5.22;;;2.88;;
45344;SDS011;31078;48.304;11.896;2022-09-03T11:47:01;5.75;;;3.53;;
45344;SDS011;31078;48.304;11.896;2022-09-03T11:49:43;4.05;;;3.20;;
45344;SDS011;31078;48.304;11.896;2022-09-03T11:52:13;3.80;;;3.15;;
45344;SDS011;31078;48.304;11.896;2022-09-03T11:54:51;5.40;;;3.53;;
45344;SDS011;31078;48.304;11.896;2022-09-03T11:57:21;3.80;;;3.13;;
45344;SDS011;31078;48.304;11.896;2022-09-03T11:59:51;5.45;;;3.08;;
45344;SDS011;31078;48.304;11.896;2022-09-03T12:02:23;3.88;;;2.45;;
45344;SDS011;31078;48.304;11.896;2022-09-03T12:04:55;4.50;;;2.65;;
45344;SDS011;31078;48.304;11.896;2022-09-03T12:07:40;3.10;;;2.42;;
45344;SDS011;31078;48.304;11.896;2022-09-03T12:10:32;5.22;;;2.63;;
45344;SDS011;31078;48.304;11.896;2022-09-03T12:13:10;3.95;;;2.78;;
45344;SDS011;31078;48.304;11.896;2022-09-03T12:16:05;3.78;;;2.95;;
45344;SDS011;31078;48.304;11.896;2022-09-03T12:18:50;4.13;;;2.55;;
45344;SDS011;31078;48.304;11.896;2022-09-03T12:21:21;3.42;;;2.50;;
45344;SDS011;31078;48.304;11.896;2022-09-03T12:23:49;4.20;;;2.20;;
45344;SDS011;31078;48.304;11.896;2022-09-03T12:26:17;4.65;;;2.50;;
45344;SDS011;31078;48.304;11.896;2022-09-03T12:28:47;3.17;;;2.35;;
45344;SDS011;31078;48.304;11.896;2022-09-03T12:31:15;3.63;;;2.40;;
45344;SDS011;31078;48.304;11.896;2022-09-03T12:33:47;3.03;;;2.50;;
45344;SDS011;31078;48.304;11.896;2022-09-03T12:36:15;2.67;;;2.28;;
45344;SDS011;31078;48.304;11.896;2022-09-03T12:38:42;4.35;;;2.33;;
45344;SDS011;31078;48.304;11.896;2022-09-03T12:41:21;7.63;;;2.30;;
45344;SDS011;31078;48.304;11.896;2022-09-03T12:43:52;2.67;;;2.17;;
45344;SDS011;31078;48.304;11.896;2022-09-03T12:46:22;5.30;;;2.75;;
45344;SDS011;31078;48.304;11.896;2022-09-03T12:48:56;2.97;;;2.30;;
45344;SDS011;31078;48.304;11.896;2022-09-03T12:51:30;2.50;;;2.17;;
45344;SDS011;31078;48.304;11.896;2022-09-03T12:53:58;5.70;;;2.25;;
45344;SDS011;31078;48.304;11.896;2022-09-03T12:56:27;5.78;;;2.10;;
45344;SDS011;31078;48.304;11.896;2022-09-03T12:59:02;4.28;;;1.90;;
45344;SDS011;31078;48.304;11.896;2022-09-03T13:01:31;4.70;;;1.98;;
45344;SDS011;31078;48.304;11.896;2022-09-03T13:04:04;4.93;;;1.98;;
45344;SDS011;31078;48.304;11.896;2022-09-03T13:06:40;4.07;;;2.00;;
45344;SDS011;31078;48.304;11.896;2022-09-03T13:09:14;3.28;;;1.73;;
45344;SDS011;31078;48.304;11.896;2022-09-03T13:11:44;2.83;;;2.00;;
45344;SDS011;31078;48.304;11.896;2022-09-03T13:14:12;4.55;;;1.88;;
45344;SDS011;31078;48.304;11.896;2022-09-03T13:16:59;3.28;;;1.80;;
45344;SDS011;31078;48.304;11.896;2022-09-03T13:19:42;1.85;;;1.63;;
45344;SDS011;31078;48.304;11.896;2022-09-03T13:22:24;4.85;;;2.15;;
45344;SDS011;31078;48.304;11.896;2022-09-03T13:25:08;2.53;;;1.80;;
45344;SDS011;31078;48.304;11.896;2022-09-03T13:27:42;2.45;;;1.70;;
45344;SDS011;31078;48.304;11.896;2022-09-03T13:30:19;4.30;;;1.67;;
45344;SDS011;31078;48.304;11.896;2022-09-03T13:32:52;2.83;;;1.80;;
45344;SDS011;31078;48.304;11.896;2022-09-03T13:35:28;2.10;;;1.70;;
45344;SDS011;31078;48.304;11.896;2022-09-03T13:38:03;4.63;;;1.83;;
45344;SDS011;31078;48.304;11.896;2022-09-03T13:40:36;1.77;;;1.48;;
45344;SDS011;31078;48.304;11.896;2022-09-03T13:43:13;2.58;;;1.65;;
45344;SDS011;31078;48.304;11.896;2022-09-03T13:45:51;2.35;;;1.73;;
45344;SDS011;31078;48.304;11.896;2022-09-03T13:48:24;2.42;;;1.67;;
45344;SDS011;31078;48.304;11.896;2022-09-03T13:51:14;4.65;;;1.67;;
45344;SDS011;31078;48.304;11.896;2022-09-03T13:53:49;2.95;;;1.50;;
45344;SDS011;31078;48.304;11.896;2022-09-03T13:56:31;2.03;;;1.60;;
45344;SDS011;31078;48.304;11.896;2022-09-03T13:59:11;2.42;;;1.60;;
45344;SDS011;31078;48.304;11.896;2022-09-03T14:02:11;1.85;;;1.08;;
45344;SDS011;31078;48.304;11.896;2022-09-03T14:04:54;4.07;;;1.77;;
45344;SDS011;31078;48.304;11.896;2022-09-03T14:07:33;1.80;;;1.33;;
45344;SDS011;31078;48.304;11.896;2022-09-03T14:10:18;2.72;;;1.45;;
45344;SDS011;31078;48.304;11.896;2022-09-03T14:12:48;2.90;;;1.58;;
45344;SDS011;31078;48.304;11.896;2022-09-03T14:15:28;2.47;;;1.52;;
45344;SDS011;31078;48.304;11.896;2022-09-03T14:18:11;1.30;;;1.20;;
45344;SDS011;31078;48.304;11.896;2022-09-03T14:20:43;1.80;;;1.50;;
45344;SDS011;31078;48.304;11.896;2022-09-03T14:23:23;1.73;;;1.42;;
45344;SDS011;31078;48.304;11.896;2022-09-03T14:25:58;2.28;;;1.60;;
45344;SDS011;31078;48.304;11.896;2022-09-03T14:28:28;2.22;;;1.38;;
45344;SDS011;31078;48.304;11.896;2022-09-03T14:31:08;2.28;;;1.58;;
45344;SDS011;31078;48.304;11.896;2022-09-03T14:33:45;1.98;;;1.23;;
45344;SDS011;31078;48.304;11.896;2022-09-03T14:36:20;2.30;;;1.40;;
45344;SDS011;31078;48.304;11.896;2022-09-03T14:41:56;1.40;;;1.30;;
45344;SDS011;31078;48.304;11.896;2022-09-03T14:44:43;3.70;;;1.37;;
45344;SDS011;31078;48.304;11.896;2022-09-03T14:47:34;1.77;;;1.30;;
45344;SDS011;31078;48.304;11.896;2022-09-03T14:50:18;1.80;;;1.52;;
45344;SDS011;31078;48.304;11.896;2022-09-03T14:53:05;2.30;;;1.30;;
45344;SDS011;31078;48.304;11.896;2022-09-03T14:55:48;1.63;;;1.40;;
45344;SDS011;31078;48.304;11.896;2022-09-03T14:58:41;1.98;;;1.35;;
45344;SDS011;31078;48.304;11.896;2022-09-03T15:01:14;2.15;;;1.55;;
45344;SDS011;31078;48.304;11.896;2022-09-03T15:04:09;2.65;;;1.45;;
45344;SDS011;31078;48.304;11.896;2022-09-03T15:06:56;2.78;;;1.60;;
45344;SDS011;31078;48.304;11.896;2022-09-03T15:12:05;2.97;;;1.60;;
45344;SDS011;31078;48.304;11.896;2022-09-03T15:14:37;9.57;;;2.95;;
45344;SDS011;31078;48.304;11.896;2022-09-03T15:17:16;5.60;;;2.50;;
45344;SDS011;31078;48.304;11.896;2022-09-03T15:20:02;5.35;;;2.30;;